sensor_id;sensor_type;location;lat;lon;timestamp;P1;durP1;ratioP1;P2;durP2;ratioP2
26536;SDS011;14204;51.262;5.488;2022-10-16T00:00:38;6.22;;;3.90;;
26536;SDS011;14204;51.262;5.488;2022-10-16T00:03:05;6.97;;;3.40;;
26536;SDS011;14204;51.262;5.488;2022-10-16T00:05:31;5.03;;;3.17;;
26536;SDS011;14204;51.262;5.488;2022-10-16T00:07:57;4.57;;;3.78;;
26536;SDS011;14204;51.262;5.488;2022-10-16T00:10:23;4.68;;;2.90;;
26536;SDS011;14204;51.262;5.488;2022-10-16T00:12:49;5.70;;;3.17;;
26536;SDS011;14204;51.262;5.488;2022-10-16T00:15:14;4.93;;;2.70;;
26536;SDS011;14204;51.262;5.488;2022-10-16T00:17:40;5.07;;;2.90;;
26536;SDS011;14204;51.262;5.488;2022-10-16T00:20:06;4.40;;;2.97;;
26536;SDS011;14204;51.262;5.488;2022-10-16T00:22:33;4.90;;;2.90;;
26536;SDS011;14204;51.262;5.488;2022-10-16T00:24:58;3.08;;;2.70;;
26536;SDS011;14204;51.262;5.488;2022-10-16T00:27:24;5.50;;;2.90;;
26536;SDS011;14204;51.262;5.488;2022-10-16T00:29:50;5.30;;;2.47;;
26536;SDS011;14204;51.262;5.488;2022-10-16T00:32:16;6.40;;;2.20;;
26536;SDS011;14204;51.262;5.488;2022-10-16T00:34:45;2.58;;;2.08;;
26536;SDS011;14204;51.262;5.488;2022-10-16T00:37:11;2.28;;;2.08;;
26536;SDS011;14204;51.262;5.488;2022-10-16T00:39:38;3.88;;;2.28;;
26536;SDS011;14204;51.262;5.488;2022-10-16T00:42:04;7.30;;;2.25;;
26536;SDS011;14204;51.262;5.488;2022-10-16T00:44:43;5.15;;;1.80;;
26536;SDS011;14204;51.262;5.488;2022-10-16T00:47:22;3.70;;;2.10;;
26536;SDS011;14204;51.262;5.488;2022-10-16T00:49:50;4.28;;;1.58;;
26536;SDS011;14204;51.262;5.488;2022-10-16T00:52:20;5.22;;;1.83;;
26536;SDS011;14204;51.262;5.488;2022-10-16T00:54:46;5.65;;;1.75;;
26536;SDS011;14204;51.262;5.488;2022-10-16T00:57:14;2.70;;;1.58;;
26536;SDS011;14204;51.262;5.488;2022-10-16T00:59:40;4.50;;;1.80;;
26536;SDS011;14204;51.262;5.488;2022-10-16T01:02:09;3.00;;;1.85;;
26536;SDS011;14204;51.262;5.488;2022-10-16T01:04:39;4.72;;;1.85;;
26536;SDS011;14204;51.262;5.488;2022-10-16T01:10:04;3.25;;;1.65;;
26536;SDS011;14204;51.262;5.488;2022-10-16T01:21:05;4.55;;;1.88;;
26536;SDS011;14204;51.262;5.488;2022-10-16T01:23:58;4.07;;;1.48;;
26536;SDS011;14204;51.262;5.488;2022-10-16T01:29:14;2.05;;;1.55;;
26536;SDS011;14204;51.262;5.488;2022-10-16T01:31:44;2.97;;;1.40;;
26536;SDS011;14204;51.262;5.488;2022-10-16T01:34:16;5.22;;;1.48;;
26536;SDS011;14204;51.262;5.488;2022-10-16T01:36:47;2.17;;;1.63;;
26536;SDS011;14204;51.262;5.488;2022-10-16T01:39:21;2.40;;;1.30;;
26536;SDS011;14204;51.262;5.488;2022-10-16T01:44:37;4.75;;;1.63;;
26536;SDS011;14204;51.262;5.488;2022-10-16T01:47:04;4.72;;;1.50;;
26536;SDS011;14204;51.262;5.488;2022-10-16T01:49:33;3.38;;;1.23;;
26536;SDS011;14204;51.262;5.488;2022-10-16T01:52:02;1.63;;;1.30;;
26536;SDS011;14204;51.262;5.488;2022-10-16T01:54:32;1.23;;;1.10;;
26536;SDS011;14204;51.262;5.488;2022-10-16T01:57:00;2.40;;;1.15;;
26536;SDS011;14204;51.262;5.488;2022-10-16T01:59:27;2.85;;;1.50;;
26536;SDS011;14204;51.262;5.488;2022-10-16T02:01:58;1.45;;;1.00;;
26536;SDS011;14204;51.262;5.488;2022-10-16T02:04:30;1.60;;;1.40;;
26536;SDS011;14204;51.262;5.488;2022-10-16T02:07:17;2.25;;;1.42;;
26536;SDS011;14204;51.262;5.488;2022-10-16T02:09:43;3.15;;;1.08;;
26536;SDS011;14204;51.262;5.488;2022-10-16T02:12:13;3.85;;;1.35;;
26536;SDS011;14204;51.262;5.488;2022-10-16T02:14:48;1.40;;;1.30;;
26536;SDS011;14204;51.262;5.488;2022-10-16T02:17:15;3.08;;;1.30;;
26536;SDS011;14204;51.262;5.488;2022-10-16T02:19:42;2.38;;;1.20;;
26536;SDS011;14204;51.262;5.488;2022-10-16T02:22:09;1.65;;;1.40;;
26536;SDS011;14204;51.262;5.488;2022-10-16T02:24:58;1.30;;;1.10;;
26536;SDS011;14204;51.262;5.488;2022-10-16T02:27:52;2.28;;;0.98;;
26536;SDS011;14204;51.262;5.488;2022-10-16T02:32:55;1.90;;;1.30;;
26536;SDS011;14204;51.262;5.488;2022-10-16T02:35:23;2.60;;;1.10;;
26536;SDS011;14204;51.262;5.488;2022-10-16T02:37:50;1.20;;;1.00;;
26536;SDS011;14204;51.262;5.488;2022-10-16T02:40:17;2.55;;;1.00;;
26536;SDS011;14204;51.262;5.488;2022-10-16T02:42:43;2.67;;;1.13;;
26536;SDS011;14204;51.262;5.488;2022-10-16T02:45:09;1.77;;;1.20;;
26536;SDS011;14204;51.262;5.488;2022-10-16T02:47:36;4.75;;;1.52;;
26536;SDS011;14204;51.262;5.488;2022-10-16T02:50:02;3.92;;;1.15;;
26536;SDS011;14204;51.262;5.488;2022-10-16T02:52:28;1.92;;;1.30;;
26536;SDS011;14204;51.262;5.488;2022-10-16T02:54:54;2.83;;;1.20;;
26536;SDS011;14204;51.262;5.488;2022-10-16T02:57:19;3.95;;;1.38;;
26536;SDS011;14204;51.262;5.488;2022-10-16T02:59:45;3.63;;;1.55;;
26536;SDS011;14204;51.262;5.488;2022-10-16T03:02:11;6.45;;;1.33;;
26536;SDS011;14204;51.262;5.488;2022-10-16T03:04:36;2.00;;;1.60;;
26536;SDS011;14204;51.262;5.488;2022-10-16T03:07:02;4.55;;;1.20;;
26536;SDS011;14204;51.262;5.488;2022-10-16T03:09:28;3.33;;;1.10;;
26536;SDS011;14204;51.262;5.488;2022-10-16T03:11:53;1.98;;;1.10;;
26536;SDS011;14204;51.262;5.488;2022-10-16T03:14:19;2.85;;;1.35;;
26536;SDS011;14204;51.262;5.488;2022-10-16T03:16:45;3.28;;;1.20;;
26536;SDS011;14204;51.262;5.488;2022-10-16T03:19:10;2.35;;;1.20;;
26536;SDS011;14204;51.262;5.488;2022-10-16T03:21:36;1.98;;;1.40;;
26536;SDS011;14204;51.262;5.488;2022-10-16T03:24:01;2.97;;;1.63;;
26536;SDS011;14204;51.262;5.488;2022-10-16T03:26:27;3.38;;;1.77;;
26536;SDS011;14204;51.262;5.488;2022-10-16T03:28:53;5.53;;;1.58;;
26536;SDS011;14204;51.262;5.488;2022-10-16T03:31:18;2.25;;;1.50;;
26536;SDS011;14204;51.262;5.488;2022-10-16T03:33:44;2.50;;;1.38;;
26536;SDS011;14204;51.262;5.488;2022-10-16T03:36:10;2.22;;;1.15;;
26536;SDS011;14204;51.262;5.488;2022-10-16T03:38:35;1.50;;;1.00;;
26536;SDS011;14204;51.262;5.488;2022-10-16T03:41:01;2.15;;;1.25;;
26536;SDS011;14204;51.262;5.488;2022-10-16T03:43:26;2.22;;;1.23;;
26536;SDS011;14204;51.262;5.488;2022-10-16T03:45:52;4.80;;;1.40;;
26536;SDS011;14204;51.262;5.488;2022-10-16T03:48:18;4.57;;;1.55;;
26536;SDS011;14204;51.262;5.488;2022-10-16T03:50:44;5.32;;;1.45;;
26536;SDS011;14204;51.262;5.488;2022-10-16T03:53:10;6.32;;;1.52;;
26536;SDS011;14204;51.262;5.488;2022-10-16T03:55:36;4.18;;;1.45;;
26536;SDS011;14204;51.262;5.488;2022-10-16T03:58:02;4.30;;;1.15;;
26536;SDS011;14204;51.262;5.488;2022-10-16T04:00:27;1.85;;;1.40;;
26536;SDS011;14204;51.262;5.488;2022-10-16T04:02:53;4.75;;;1.40;;
26536;SDS011;14204;51.262;5.488;2022-10-16T04:05:19;2.17;;;1.30;;
26536;SDS011;14204;51.262;5.488;2022-10-16T04:07:44;3.00;;;1.50;;
26536;SDS011;14204;51.262;5.488;2022-10-16T04:10:10;1.95;;;1.52;;
26536;SDS011;14204;51.262;5.488;2022-10-16T04:12:35;2.15;;;1.48;;
26536;SDS011;14204;51.262;5.488;2022-10-16T04:15:01;5.32;;;2.00;;
26536;SDS011;14204;51.262;5.488;2022-10-16T04:17:27;3.13;;;1.60;;
26536;SDS011;14204;51.262;5.488;2022-10-16T04:19:53;1.77;;;1.30;;
26536;SDS011;14204;51.262;5.488;2022-10-16T04:22:18;3.65;;;1.50;;
26536;SDS011;14204;51.262;5.488;2022-10-16T04:24:44;2.72;;;1.40;;
26536;SDS011;14204;51.262;5.488;2022-10-16T04:27:09;4.43;;;1.40;;
26536;SDS011;14204;51.262;5.488;2022-10-16T04:29:35;1.35;;;1.20;;
26536;SDS011;14204;51.262;5.488;2022-10-16T04:32:00;3.50;;;1.42;;
26536;SDS011;14204;51.262;5.488;2022-10-16T04:34:26;2.22;;;1.40;;
26536;SDS011;14204;51.262;5.488;2022-10-16T04:36:52;3.45;;;1.67;;
26536;SDS011;14204;51.262;5.488;2022-10-16T04:39:17;2.70;;;1.80;;
26536;SDS011;14204;51.262;5.488;2022-10-16T04:41:43;3.60;;;1.45;;
26536;SDS011;14204;51.262;5.488;2022-10-16T04:44:09;3.45;;;2.03;;
26536;SDS011;14204;51.262;5.488;2022-10-16T04:46:34;4.07;;;1.60;;
26536;SDS011;14204;51.262;5.488;2022-10-16T04:49:00;3.03;;;2.05;;
26536;SDS011;14204;51.262;5.488;2022-10-16T04:51:26;3.45;;;1.52;;
26536;SDS011;14204;51.262;5.488;2022-10-16T04:53:52;5.07;;;1.92;;
26536;SDS011;14204;51.262;5.488;2022-10-16T04:56:19;2.10;;;1.70;;
26536;SDS011;14204;51.262;5.488;2022-10-16T04:58:45;3.95;;;1.55;;
26536;SDS011;14204;51.262;5.488;2022-10-16T05:01:11;2.13;;;1.58;;
26536;SDS011;14204;51.262;5.488;2022-10-16T05:03:37;3.00;;;1.73;;
26536;SDS011;14204;51.262;5.488;2022-10-16T05:06:04;4.00;;;1.38;;
26536;SDS011;14204;51.262;5.488;2022-10-16T05:08:30;3.80;;;1.85;;
26536;SDS011;14204;51.262;5.488;2022-10-16T05:10:56;2.33;;;1.88;;
26536;SDS011;14204;51.262;5.488;2022-10-16T05:13:21;7.22;;;2.17;;
26536;SDS011;14204;51.262;5.488;2022-10-16T05:15:48;7.18;;;1.95;;
26536;SDS011;14204;51.262;5.488;2022-10-16T05:18:14;2.65;;;1.50;;
26536;SDS011;14204;51.262;5.488;2022-10-16T05:20:40;4.20;;;2.17;;
26536;SDS011;14204;51.262;5.488;2022-10-16T05:23:06;3.35;;;1.80;;
26536;SDS011;14204;51.262;5.488;2022-10-16T05:25:32;1.92;;;1.73;;
26536;SDS011;14204;51.262;5.488;2022-10-16T05:27:58;3.42;;;1.85;;
26536;SDS011;14204;51.262;5.488;2022-10-16T05:30:23;4.80;;;1.65;;
26536;SDS011;14204;51.262;5.488;2022-10-16T05:32:49;6.40;;;1.70;;
26536;SDS011;14204;51.262;5.488;2022-10-16T05:35:16;2.83;;;2.10;;
26536;SDS011;14204;51.262;5.488;2022-10-16T05:37:42;1.92;;;1.65;;
26536;SDS011;14204;51.262;5.488;2022-10-16T05:40:09;4.57;;;1.65;;
26536;SDS011;14204;51.262;5.488;2022-10-16T05:42:34;5.85;;;2.05;;
26536;SDS011;14204;51.262;5.488;2022-10-16T05:45:00;2.55;;;1.67;;
26536;SDS011;14204;51.262;5.488;2022-10-16T05:47:26;3.47;;;2.10;;
26536;SDS011;14204;51.262;5.488;2022-10-16T05:49:51;6.30;;;1.90;;
26536;SDS011;14204;51.262;5.488;2022-10-16T05:52:18;3.08;;;1.73;;
26536;SDS011;14204;51.262;5.488;2022-10-16T05:54:44;3.25;;;1.95;;
26536;SDS011;14204;51.262;5.488;2022-10-16T05:57:09;6.93;;;1.95;;
26536;SDS011;14204;51.262;5.488;2022-10-16T05:59:35;4.63;;;2.05;;
26536;SDS011;14204;51.262;5.488;2022-10-16T06:02:00;3.08;;;1.98;;
26536;SDS011;14204;51.262;5.488;2022-10-16T06:04:26;4.40;;;1.95;;
26536;SDS011;14204;51.262;5.488;2022-10-16T06:06:51;4.43;;;2.20;;
26536;SDS011;14204;51.262;5.488;2022-10-16T06:09:17;5.32;;;2.10;;
26536;SDS011;14204;51.262;5.488;2022-10-16T06:11:43;3.95;;;1.90;;
26536;SDS011;14204;51.262;5.488;2022-10-16T06:14:08;2.83;;;2.33;;
26536;SDS011;14204;51.262;5.488;2022-10-16T06:16:34;4.75;;;2.17;;
26536;SDS011;14204;51.262;5.488;2022-10-16T06:19:01;4.93;;;3.30;;
26536;SDS011;14204;51.262;5.488;2022-10-16T06:21:29;4.15;;;2.42;;
26536;SDS011;14204;51.262;5.488;2022-10-16T06:23:55;10.32;;;2.60;;
26536;SDS011;14204;51.262;5.488;2022-10-16T06:26:22;4.18;;;2.60;;
26536;SDS011;14204;51.262;5.488;2022-10-16T06:28:49;4.78;;;2.33;;
26536;SDS011;14204;51.262;5.488;2022-10-16T06:31:15;4.40;;;2.00;;
26536;SDS011;14204;51.262;5.488;2022-10-16T06:33:41;4.65;;;2.47;;
26536;SDS011;14204;51.262;5.488;2022-10-16T06:36:09;4.38;;;2.33;;
26536;SDS011;14204;51.262;5.488;2022-10-16T06:38:36;4.53;;;2.72;;
26536;SDS011;14204;51.262;5.488;2022-10-16T06:41:02;3.42;;;2.90;;
26536;SDS011;14204;51.262;5.488;2022-10-16T06:43:29;6.47;;;3.22;;
26536;SDS011;14204;51.262;5.488;2022-10-16T06:46:00;4.28;;;2.80;;
26536;SDS011;14204;51.262;5.488;2022-10-16T06:48:27;7.10;;;3.40;;
26536;SDS011;14204;51.262;5.488;2022-10-16T06:53:25;7.45;;;3.35;;
26536;SDS011;14204;51.262;5.488;2022-10-16T06:55:53;5.43;;;2.92;;
26536;SDS011;14204;51.262;5.488;2022-10-16T06:58:19;6.18;;;3.40;;
26536;SDS011;14204;51.262;5.488;2022-10-16T07:00:45;4.88;;;2.42;;
26536;SDS011;14204;51.262;5.488;2022-10-16T07:03:10;5.55;;;2.50;;
26536;SDS011;14204;51.262;5.488;2022-10-16T07:05:37;7.38;;;2.67;;
26536;SDS011;14204;51.262;5.488;2022-10-16T07:08:06;6.40;;;3.45;;
26536;SDS011;14204;51.262;5.488;2022-10-16T07:10:33;4.45;;;2.63;;
26536;SDS011;14204;51.262;5.488;2022-10-16T07:12:59;4.85;;;2.55;;
26536;SDS011;14204;51.262;5.488;2022-10-16T07:15:25;3.05;;;2.00;;
26536;SDS011;14204;51.262;5.488;2022-10-16T07:17:51;5.85;;;2.88;;
26536;SDS011;14204;51.262;5.488;2022-10-16T07:20:17;8.60;;;2.95;;
26536;SDS011;14204;51.262;5.488;2022-10-16T07:22:43;4.97;;;2.90;;
26536;SDS011;14204;51.262;5.488;2022-10-16T07:25:08;3.67;;;2.67;;
26536;SDS011;14204;51.262;5.488;2022-10-16T07:27:34;5.97;;;2.83;;
26536;SDS011;14204;51.262;5.488;2022-10-16T07:30:00;5.50;;;3.40;;
26536;SDS011;14204;51.262;5.488;2022-10-16T07:32:25;6.45;;;3.00;;
26536;SDS011;14204;51.262;5.488;2022-10-16T07:34:52;5.53;;;2.70;;
26536;SDS011;14204;51.262;5.488;2022-10-16T07:37:18;10.00;;;3.55;;
26536;SDS011;14204;51.262;5.488;2022-10-16T07:39:43;3.95;;;2.40;;
26536;SDS011;14204;51.262;5.488;2022-10-16T07:42:09;4.07;;;2.53;;
26536;SDS011;14204;51.262;5.488;2022-10-16T07:44:35;4.18;;;3.22;;
26536;SDS011;14204;51.262;5.488;2022-10-16T07:47:00;6.10;;;2.92;;
26536;SDS011;14204;51.262;5.488;2022-10-16T07:49:26;6.47;;;2.78;;
26536;SDS011;14204;51.262;5.488;2022-10-16T07:51:52;4.15;;;3.30;;
26536;SDS011;14204;51.262;5.488;2022-10-16T07:54:18;4.32;;;2.70;;
26536;SDS011;14204;51.262;5.488;2022-10-16T07:56:43;9.40;;;2.97;;
26536;SDS011;14204;51.262;5.488;2022-10-16T07:59:09;4.80;;;2.80;;
26536;SDS011;14204;51.262;5.488;2022-10-16T08:01:35;3.97;;;2.55;;
26536;SDS011;14204;51.262;5.488;2022-10-16T08:04:00;4.25;;;2.60;;
26536;SDS011;14204;51.262;5.488;2022-10-16T08:06:26;7.03;;;2.35;;
26536;SDS011;14204;51.262;5.488;2022-10-16T08:08:52;4.00;;;2.10;;
26536;SDS011;14204;51.262;5.488;2022-10-16T08:11:17;4.80;;;2.83;;
26536;SDS011;14204;51.262;5.488;2022-10-16T08:13:43;5.93;;;2.40;;
26536;SDS011;14204;51.262;5.488;2022-10-16T08:16:09;4.53;;;2.35;;
26536;SDS011;14204;51.262;5.488;2022-10-16T08:18:38;7.40;;;2.47;;
26536;SDS011;14204;51.262;5.488;2022-10-16T08:21:05;4.47;;;2.42;;
26536;SDS011;14204;51.262;5.488;2022-10-16T08:23:32;7.07;;;2.47;;
26536;SDS011;14204;51.262;5.488;2022-10-16T08:26:02;3.55;;;2.45;;
26536;SDS011;14204;51.262;5.488;2022-10-16T08:28:29;4.78;;;2.20;;
26536;SDS011;14204;51.262;5.488;2022-10-16T08:30:55;4.07;;;1.98;;
26536;SDS011;14204;51.262;5.488;2022-10-16T08:33:21;5.03;;;1.77;;
26536;SDS011;14204;51.262;5.488;2022-10-16T08:35:51;6.55;;;2.40;;
26536;SDS011;14204;51.262;5.488;2022-10-16T08:38:18;5.43;;;1.85;;
26536;SDS011;14204;51.262;5.488;2022-10-16T08:40:44;5.57;;;1.98;;
26536;SDS011;14204;51.262;5.488;2022-10-16T08:48:27;4.07;;;1.70;;
26536;SDS011;14204;51.262;5.488;2022-10-16T08:51:23;4.75;;;1.73;;
26536;SDS011;14204;51.262;5.488;2022-10-16T08:56:20;4.40;;;2.22;;
26536;SDS011;14204;51.262;5.488;2022-10-16T08:58:46;4.10;;;1.88;;
26536;SDS011;14204;51.262;5.488;2022-10-16T09:01:14;6.85;;;1.95;;
26536;SDS011;14204;51.262;5.488;2022-10-16T09:19:58;6.40;;;1.87;;
26536;SDS011;14204;51.262;5.488;2022-10-16T09:22:46;6.43;;;1.60;;
26536;SDS011;14204;51.262;5.488;2022-10-16T09:25:20;5.75;;;1.25;;
26536;SDS011;14204;51.262;5.488;2022-10-16T09:27:47;6.07;;;1.95;;
26536;SDS011;14204;51.262;5.488;2022-10-16T09:30:16;5.32;;;1.45;;
26536;SDS011;14204;51.262;5.488;2022-10-16T09:32:44;6.18;;;1.80;;
26536;SDS011;14204;51.262;5.488;2022-10-16T09:35:17;3.67;;;1.45;;
26536;SDS011;14204;51.262;5.488;2022-10-16T09:37:47;5.18;;;1.42;;
26536;SDS011;14204;51.262;5.488;2022-10-16T09:40:28;3.92;;;1.35;;
26536;SDS011;14204;51.262;5.488;2022-10-16T09:45:40;4.30;;;1.45;;
26536;SDS011;14204;51.262;5.488;2022-10-16T09:48:12;8.98;;;1.40;;
26536;SDS011;14204;51.262;5.488;2022-10-16T09:50:43;6.47;;;1.45;;
26536;SDS011;14204;51.262;5.488;2022-10-16T09:53:12;5.95;;;1.85;;
26536;SDS011;14204;51.262;5.488;2022-10-16T09:55:50;4.70;;;1.83;;
26536;SDS011;14204;51.262;5.488;2022-10-16T09:58:18;6.18;;;1.60;;
26536;SDS011;14204;51.262;5.488;2022-10-16T10:00:48;8.80;;;1.42;;
26536;SDS011;14204;51.262;5.488;2022-10-16T10:06:22;6.93;;;1.40;;
26536;SDS011;14204;51.262;5.488;2022-10-16T10:08:54;6.43;;;1.60;;
26536;SDS011;14204;51.262;5.488;2022-10-16T10:11:50;3.20;;;1.35;;
26536;SDS011;14204;51.262;5.488;2022-10-16T10:19:30;3.03;;;1.10;;
26536;SDS011;14204;51.262;5.488;2022-10-16T10:30:23;5.00;;;1.38;;
26536;SDS011;14204;51.262;5.488;2022-10-16T10:33:05;5.95;;;1.45;;
26536;SDS011;14204;51.262;5.488;2022-10-16T10:39:04;7.13;;;1.50;;
26536;SDS011;14204;51.262;5.488;2022-10-16T10:43:56;4.78;;;1.50;;
26536;SDS011;14204;51.262;5.488;2022-10-16T10:49:14;6.30;;;1.60;;
26536;SDS011;14204;51.262;5.488;2022-10-16T10:57:30;4.70;;;1.27;;
26536;SDS011;14204;51.262;5.488;2022-10-16T11:05:49;13.07;;;2.03;;
26536;SDS011;14204;51.262;5.488;2022-10-16T11:08:20;6.13;;;1.27;;
26536;SDS011;14204;51.262;5.488;2022-10-16T11:10:53;8.77;;;1.70;;
26536;SDS011;14204;51.262;5.488;2022-10-16T11:15:57;7.63;;;1.73;;
26536;SDS011;14204;51.262;5.488;2022-10-16T11:21:00;5.88;;;1.90;;
26536;SDS011;14204;51.262;5.488;2022-10-16T11:23:31;8.35;;;1.63;;
26536;SDS011;14204;51.262;5.488;2022-10-16T11:26:21;2.83;;;1.10;;
26536;SDS011;14204;51.262;5.488;2022-10-16T11:28:54;4.95;;;1.10;;
26536;SDS011;14204;51.262;5.488;2022-10-16T11:31:38;3.38;;;1.10;;
26536;SDS011;14204;51.262;5.488;2022-10-16T11:37:02;3.55;;;1.10;;
26536;SDS011;14204;51.262;5.488;2022-10-16T11:39:36;7.88;;;1.10;;
26536;SDS011;14204;51.262;5.488;2022-10-16T11:42:07;5.53;;;1.05;;
26536;SDS011;14204;51.262;5.488;2022-10-16T11:44:57;3.47;;;1.40;;
26536;SDS011;14204;51.262;5.488;2022-10-16T11:50:57;8.77;;;1.58;;
26536;SDS011;14204;51.262;5.488;2022-10-16T11:56:38;6.32;;;1.70;;
26536;SDS011;14204;51.262;5.488;2022-10-16T12:01:46;5.07;;;1.08;;
26536;SDS011;14204;51.262;5.488;2022-10-16T12:06:57;5.35;;;1.55;;
26536;SDS011;14204;51.262;5.488;2022-10-16T12:09:31;5.80;;;1.25;;
26536;SDS011;14204;51.262;5.488;2022-10-16T12:12:00;5.80;;;1.23;;
26536;SDS011;14204;51.262;5.488;2022-10-16T12:17:01;5.35;;;1.45;;
26536;SDS011;14204;51.262;5.488;2022-10-16T12:19:31;4.28;;;1.20;;
26536;SDS011;14204;51.262;5.488;2022-10-16T12:21:58;5.40;;;1.25;;
26536;SDS011;14204;51.262;5.488;2022-10-16T12:24:33;3.60;;;1.10;;
26536;SDS011;14204;51.262;5.488;2022-10-16T12:27:04;6.65;;;1.20;;
26536;SDS011;14204;51.262;5.488;2022-10-16T12:29:45;2.25;;;0.95;;
26536;SDS011;14204;51.262;5.488;2022-10-16T12:32:23;4.35;;;1.00;;
26536;SDS011;14204;51.262;5.488;2022-10-16T12:34:58;4.47;;;1.30;;
26536;SDS011;14204;51.262;5.488;2022-10-16T12:37:30;3.45;;;1.08;;
26536;SDS011;14204;51.262;5.488;2022-10-16T12:39:59;5.82;;;1.10;;
26536;SDS011;14204;51.262;5.488;2022-10-16T12:42:36;7.28;;;1.38;;
26536;SDS011;14204;51.262;5.488;2022-10-16T12:45:12;2.92;;;1.00;;
26536;SDS011;14204;51.262;5.488;2022-10-16T12:47:57;5.88;;;1.38;;
26536;SDS011;14204;51.262;5.488;2022-10-16T12:52:52;3.40;;;0.93;;
26536;SDS011;14204;51.262;5.488;2022-10-16T12:55:19;10.45;;;1.60;;
26536;SDS011;14204;51.262;5.488;2022-10-16T13:00:37;3.72;;;1.20;;
26536;SDS011;14204;51.262;5.488;2022-10-16T13:05:54;4.70;;;1.17;;
26536;SDS011;14204;51.262;5.488;2022-10-16T13:11:20;7.72;;;1.42;;
26536;SDS011;14204;51.262;5.488;2022-10-16T13:17:21;7.07;;;1.25;;
26536;SDS011;14204;51.262;5.488;2022-10-16T13:25:30;6.80;;;1.15;;
26536;SDS011;14204;51.262;5.488;2022-10-16T13:28:07;4.38;;;1.33;;
26536;SDS011;14204;51.262;5.488;2022-10-16T13:30:44;4.45;;;1.60;;
26536;SDS011;14204;51.262;5.488;2022-10-16T13:35:49;4.93;;;1.42;;
26536;SDS011;14204;51.262;5.488;2022-10-16T13:38:17;1.92;;;1.10;;
26536;SDS011;14204;51.262;5.488;2022-10-16T13:40:48;2.97;;;0.98;;
26536;SDS011;14204;51.262;5.488;2022-10-16T13:45:52;1.92;;;1.10;;
26536;SDS011;14204;51.262;5.488;2022-10-16T13:48:29;2.80;;;1.38;;
26536;SDS011;14204;51.262;5.488;2022-10-16T13:51:04;3.67;;;1.50;;
26536;SDS011;14204;51.262;5.488;2022-10-16T13:53:40;4.75;;;1.85;;
26536;SDS011;14204;51.262;5.488;2022-10-16T13:56:09;4.20;;;1.10;;
26536;SDS011;14204;51.262;5.488;2022-10-16T13:58:43;5.15;;;1.02;;
26536;SDS011;14204;51.262;5.488;2022-10-16T14:03:52;8.30;;;1.65;;
26536;SDS011;14204;51.262;5.488;2022-10-16T14:06:20;7.82;;;1.30;;
26536;SDS011;14204;51.262;5.488;2022-10-16T14:08:53;3.08;;;1.00;;
26536;SDS011;14204;51.262;5.488;2022-10-16T14:11:25;5.57;;;1.30;;
26536;SDS011;14204;51.262;5.488;2022-10-16T14:13:51;7.38;;;1.20;;
26536;SDS011;14204;51.262;5.488;2022-10-16T14:16:21;3.92;;;1.08;;
26536;SDS011;14204;51.262;5.488;2022-10-16T14:19:03;4.55;;;1.00;;
26536;SDS011;14204;51.262;5.488;2022-10-16T14:21:31;7.60;;;0.80;;
26536;SDS011;14204;51.262;5.488;2022-10-16T14:23:58;4.55;;;1.23;;
26536;SDS011;14204;51.262;5.488;2022-10-16T14:26:27;5.10;;;1.00;;
26536;SDS011;14204;51.262;5.488;2022-10-16T14:31:42;4.78;;;1.08;;
26536;SDS011;14204;51.262;5.488;2022-10-16T14:34:33;3.10;;;1.30;;
26536;SDS011;14204;51.262;5.488;2022-10-16T14:37:02;2.78;;;0.88;;
26536;SDS011;14204;51.262;5.488;2022-10-16T14:39:34;5.10;;;1.42;;
26536;SDS011;14204;51.262;5.488;2022-10-16T14:42:00;3.20;;;0.85;;
26536;SDS011;14204;51.262;5.488;2022-10-16T14:44:28;9.80;;;1.10;;
26536;SDS011;14204;51.262;5.488;2022-10-16T14:46:56;3.22;;;1.38;;
26536;SDS011;14204;51.262;5.488;2022-10-16T14:49:24;8.90;;;1.20;;
26536;SDS011;14204;51.262;5.488;2022-10-16T14:51:50;1.25;;;0.77;;
26536;SDS011;14204;51.262;5.488;2022-10-16T14:54:17;2.90;;;1.00;;
26536;SDS011;14204;51.262;5.488;2022-10-16T14:56:45;7.85;;;1.20;;
26536;SDS011;14204;51.262;5.488;2022-10-16T14:59:26;11.10;;;2.10;;
26536;SDS011;14204;51.262;5.488;2022-10-16T15:02:00;5.93;;;1.50;;
26536;SDS011;14204;51.262;5.488;2022-10-16T15:04:39;5.28;;;0.85;;
26536;SDS011;14204;51.262;5.488;2022-10-16T15:07:04;5.47;;;1.23;;
26536;SDS011;14204;51.262;5.488;2022-10-16T15:09:32;4.95;;;1.00;;
26536;SDS011;14204;51.262;5.488;2022-10-16T15:11:57;4.10;;;1.15;;
26536;SDS011;14204;51.262;5.488;2022-10-16T15:14:23;9.65;;;1.40;;
26536;SDS011;14204;51.262;5.488;2022-10-16T15:16:48;4.85;;;1.15;;
26536;SDS011;14204;51.262;5.488;2022-10-16T15:19:14;8.63;;;1.35;;
26536;SDS011;14204;51.262;5.488;2022-10-16T15:21:40;6.65;;;1.55;;
26536;SDS011;14204;51.262;5.488;2022-10-16T15:24:08;3.25;;;1.05;;
26536;SDS011;14204;51.262;5.488;2022-10-16T15:26:36;5.20;;;1.50;;
26536;SDS011;14204;51.262;5.488;2022-10-16T15:29:01;2.88;;;1.10;;
26536;SDS011;14204;51.262;5.488;2022-10-16T15:31:27;5.20;;;1.10;;
26536;SDS011;14204;51.262;5.488;2022-10-16T15:33:53;1.88;;;1.02;;
26536;SDS011;14204;51.262;5.488;2022-10-16T15:36:29;3.92;;;1.02;;
26536;SDS011;14204;51.262;5.488;2022-10-16T15:39:01;2.20;;;1.10;;
26536;SDS011;14204;51.262;5.488;2022-10-16T15:41:41;5.38;;;1.15;;
26536;SDS011;14204;51.262;5.488;2022-10-16T15:44:07;4.97;;;1.42;;
26536;SDS011;14204;51.262;5.488;2022-10-16T15:46:33;3.00;;;1.23;;
26536;SDS011;14204;51.262;5.488;2022-10-16T15:48:59;4.38;;;1.08;;
26536;SDS011;14204;51.262;5.488;2022-10-16T15:51:25;4.43;;;1.90;;
26536;SDS011;14204;51.262;5.488;2022-10-16T15:53:58;4.95;;;1.27;;
26536;SDS011;14204;51.262;5.488;2022-10-16T15:56:26;3.28;;;1.40;;
26536;SDS011;14204;51.262;5.488;2022-10-16T15:58:53;3.03;;;1.10;;
26536;SDS011;14204;51.262;5.488;2022-10-16T16:01:20;5.95;;;1.33;;
26536;SDS011;14204;51.262;5.488;2022-10-16T16:03:46;4.97;;;1.58;;
26536;SDS011;14204;51.262;5.488;2022-10-16T16:06:12;6.95;;;1.35;;
26536;SDS011;14204;51.262;5.488;2022-10-16T16:08:39;3.50;;;1.52;;
26536;SDS011;14204;51.262;5.488;2022-10-16T16:11:15;7.22;;;1.40;;
26536;SDS011;14204;51.262;5.488;2022-10-16T16:13:41;8.77;;;1.50;;
26536;SDS011;14204;51.262;5.488;2022-10-16T16:16:08;10.63;;;2.03;;
26536;SDS011;14204;51.262;5.488;2022-10-16T16:18:44;5.05;;;1.90;;
26536;SDS011;14204;51.262;5.488;2022-10-16T16:21:11;5.38;;;1.70;;
26536;SDS011;14204;51.262;5.488;2022-10-16T16:23:37;3.33;;;1.27;;
26536;SDS011;14204;51.262;5.488;2022-10-16T16:28:31;9.77;;;1.90;;
26536;SDS011;14204;51.262;5.488;2022-10-16T16:30:57;6.95;;;2.35;;
26536;SDS011;14204;51.262;5.488;2022-10-16T16:33:22;6.97;;;1.65;;
26536;SDS011;14204;51.262;5.488;2022-10-16T16:35:49;8.73;;;1.75;;
26536;SDS011;14204;51.262;5.488;2022-10-16T16:38:14;10.52;;;2.08;;
26536;SDS011;14204;51.262;5.488;2022-10-16T16:40:40;6.78;;;2.85;;
26536;SDS011;14204;51.262;5.488;2022-10-16T16:43:05;10.25;;;2.10;;
26536;SDS011;14204;51.262;5.488;2022-10-16T16:45:34;11.85;;;2.38;;
26536;SDS011;14204;51.262;5.488;2022-10-16T16:48:00;5.38;;;2.38;;
26536;SDS011;14204;51.262;5.488;2022-10-16T16:50:26;8.30;;;2.22;;
26536;SDS011;14204;51.262;5.488;2022-10-16T16:52:52;9.27;;;2.15;;
26536;SDS011;14204;51.262;5.488;2022-10-16T16:55:17;6.57;;;1.80;;
26536;SDS011;14204;51.262;5.488;2022-10-16T16:57:44;5.32;;;1.90;;
26536;SDS011;14204;51.262;5.488;2022-10-16T17:00:12;2.53;;;2.08;;
26536;SDS011;14204;51.262;5.488;2022-10-16T17:02:38;7.80;;;2.20;;
26536;SDS011;14204;51.262;5.488;2022-10-16T17:05:08;18.27;;;2.60;;
26536;SDS011;14204;51.262;5.488;2022-10-16T17:07:34;10.55;;;2.83;;
26536;SDS011;14204;51.262;5.488;2022-10-16T17:10:00;9.90;;;2.42;;
26536;SDS011;14204;51.262;5.488;2022-10-16T17:12:26;8.32;;;2.60;;
26536;SDS011;14204;51.262;5.488;2022-10-16T17:14:53;7.25;;;2.65;;
26536;SDS011;14204;51.262;5.488;2022-10-16T17:17:18;5.53;;;2.63;;